Time;durP1;ratioP1;P1;durP2;ratioP2;P2;SDS_P1;SDS_P2;PMS_P1;PMS_P2;Temp;Humidity;BMP_temperature;BMP_pressure;BME280_temperature;BME280_humidity;BME280_pressure;Samples;Min_cycle;Max_cycle;Signal;HPM_P1;HPM_P2
2023/09/05 00:00:15;;;;;;;5.00;2.53;;;19.30;61.50;;;;;;5036234;28;20057;-70
2023/09/05 00:02:41;;;;;;;4.60;2.90;;;19.20;61.40;;;;;;5036062;28;20060;-70
2023/09/05 00:05:08;;;;;;;8.48;2.40;;;19.20;62.20;;;;;;5034308;28;20057;-69
2023/09/05 00:07:38;;;;;;;5.65;2.80;;;19.30;61.40;;;;;;5035830;28;20026;-70
2023/09/05 00:10:06;;;;;;;4.47;2.87;;;19.30;61.20;;;;;;5034095;28;20040;-70
2023/09/05 00:12:32;;;;;;;6.32;3.22;;;19.20;63.10;;;;;;5035523;28;20267;-70
2023/09/05 00:14:58;;;;;;;5.70;2.97;;;19.10;63.40;;;;;;5035599;28;20063;-70
2023/09/05 00:17:24;;;;;;;6.38;2.88;;;19.20;63.40;;;;;;5035721;28;20498;-70
2023/09/05 00:19:51;;;;;;;5.13;2.65;;;19.20;64.20;;;;;;5035592;28;20076;-70
2023/09/05 00:22:19;;;;;;;3.72;2.10;;;19.20;64.10;;;;;;5034440;28;20460;-69
2023/09/05 00:24:45;;;;;;;4.93;2.58;;;19.10;64.10;;;;;;5035526;28;20468;-70
2023/09/05 00:27:14;;;;;;;6.28;2.60;;;19.00;64.50;;;;;;5035334;28;20067;-70
2023/09/05 00:29:41;;;;;;;6.32;2.50;;;18.90;66.00;;;;;;5034251;28;20036;-70
2023/09/05 00:32:09;;;;;;;3.92;2.70;;;18.90;65.30;;;;;;5035443;28;20040;-70
2023/09/05 00:34:37;;;;;;;5.07;2.75;;;18.90;66.00;;;;;;5034031;28;20079;-70
2023/09/05 00:37:06;;;;;;;4.82;2.50;;;18.90;66.80;;;;;;5035281;28;20057;-70
2023/09/05 00:39:33;;;;;;;5.78;2.95;;;18.80;67.30;;;;;;5035283;28;20387;-70
2023/09/05 00:42:03;;;;;;;7.28;2.70;;;18.80;67.60;;;;;;5034067;28;20505;-70
2023/09/05 00:44:29;;;;;;;3.65;2.65;;;18.90;66.60;;;;;;5034072;28;20033;-70
2023/09/05 00:46:58;;;;;;;7.10;3.22;;;18.70;68.20;;;;;;5035137;28;20033;-70
2023/09/05 00:49:27;;;;;;;6.07;2.28;;;18.70;67.00;;;;;;5033732;28;20083;-70
2023/09/05 00:52:00;;;;;;;4.40;2.90;;;18.70;68.50;;;;;;5033577;28;20025;-70
2023/09/05 00:54:27;;;;;;;6.70;2.90;;;18.60;69.10;;;;;;5018315;28;20105;-69
2023/09/05 00:56:53;;;;;;;3.13;2.58;;;18.60;69.90;;;;;;5015397;28;20091;-69
2023/09/05 00:59:22;;;;;;;4.63;2.50;;;18.50;70.60;;;;;;5015305;28;20029;-70
2023/09/05 01:01:48;;;;;;;3.55;2.22;;;18.60;70.30;;;;;;5015076;28;20029;-70
2023/09/05 01:04:14;;;;;;;6.75;2.72;;;18.50;71.10;;;;;;5014850;28;20063;-70
2023/09/05 01:06:53;;;;;;;6.63;2.97;;;18.50;71.40;;;;;;5013840;28;20038;-69
2023/09/05 01:09:38;;;;;;;3.42;2.60;;;18.30;72.60;;;;;;5015058;28;20034;-70
2023/09/05 01:12:06;;;;;;;5.88;2.90;;;18.20;72.80;;;;;;5014963;28;20026;-70
2023/09/05 01:14:32;;;;;;;5.65;2.65;;;18.20;73.90;;;;;;5014963;28;20030;-69
2023/09/05 01:17:02;;;;;;;4.45;3.05;;;18.20;74.90;;;;;;5015080;28;20040;-69
2023/09/05 01:19:29;;;;;;;6.55;2.63;;;18.20;75.00;;;;;;5013679;28;20040;-70
2023/09/05 01:22:10;;;;;;;4.60;2.70;;;18.20;74.90;;;;;;5012822;28;20038;-70
2023/09/05 01:24:38;;;;;;;;;;;18.10;75.10;;;;;;5024291;28;20287;-70
2023/09/05 01:27:05;;;;;;;5.70;3.17;;;18.00;76.50;;;;;;5034589;28;19952;-70
2023/09/05 01:29:38;;;;;;;5.05;2.40;;;18.00;76.50;;;;;;5033278;28;20036;-70
2023/09/05 01:32:12;;;;;;;8.65;3.38;;;17.90;78.10;;;;;;5034486;28;20036;-70
2023/09/05 01:34:38;;;;;;;5.90;2.80;;;17.80;78.90;;;;;;5034492;28;20072;-69
2023/09/05 01:37:06;;;;;;;4.72;2.97;;;17.70;78.60;;;;;;5034441;28;20419;-69
2023/09/05 01:39:32;;;;;;;5.28;3.35;;;17.60;80.60;;;;;;5033064;28;20061;-70
2023/09/05 01:42:00;;;;;;;4.28;3.05;;;17.50;81.60;;;;;;5034607;28;20045;-70
2023/09/05 01:44:26;;;;;;;3.97;2.95;;;17.50;81.80;;;;;;5034308;28;20036;-70
2023/09/05 01:46:52;;;;;;;5.13;2.97;;;17.40;82.90;;;;;;5032905;28;20025;-69
2023/09/05 01:49:18;;;;;;;4.90;3.53;;;17.40;84.00;;;;;;5032853;28;20068;-70
2023/09/05 01:51:43;;;;;;;5.35;3.42;;;17.30;86.20;;;;;;5034370;28;20029;-69
2023/09/05 01:54:10;;;;;;;4.85;3.22;;;17.20;88.40;;;;;;5018615;28;20030;-70
2023/09/05 01:56:36;;;;;;;4.35;3.25;;;17.10;90.50;;;;;;5014792;28;20380;-69
2023/09/05 01:59:02;;;;;;;4.40;2.85;;;17.30;89.80;;;;;;5013315;28;20030;-69
2023/09/05 02:01:28;;;;;;;6.68;3.60;;;17.40;89.40;;;;;;5011806;28;20057;-69
2023/09/05 02:03:54;;;;;;;7.35;3.20;;;17.20;90.60;;;;;;4995535;28;20037;-70
2023/09/05 02:06:20;;;;;;;4.07;3.20;;;17.10;91.20;;;;;;5011948;28;20050;-70
2023/09/05 02:08:46;;;;;;;4.50;2.97;;;17.00;92.20;;;;;;5011898;28;20234;-70
2023/09/05 02:11:12;;;;;;;4.95;3.10;;;16.90;93.30;;;;;;5012022;28;20117;-70
2023/09/05 02:13:38;;;;;;;6.05;3.08;;;16.80;94.30;;;;;;5011720;28;20094;-69
2023/09/05 02:16:04;;;;;;;4.85;3.15;;;16.70;95.30;;;;;;5011957;28;20038;-69
2023/09/05 02:18:30;;;;;;;6.38;3.40;;;16.60;96.00;;;;;;5012083;28;20048;-70
2023/09/05 02:21:01;;;;;;;3.70;2.78;;;16.60;96.20;;;;;;4995371;28;20048;-69
2023/09/05 02:23:27;;;;;;;;;;;16.50;96.10;;;;;;5013122;28;20065;-70
2023/09/05 02:25:59;;;;;;;4.05;2.80;;;16.50;96.50;;;;;;5015132;28;20059;-70
2023/09/05 02:28:25;;;;;;;5.50;3.00;;;16.50;97.40;;;;;;5031315;28;20406;-69
2023/09/05 02:30:52;;;;;;;5.50;3.13;;;16.40;98.10;;;;;;5031617;28;20037;-69
2023/09/05 02:33:19;;;;;;;5.10;3.42;;;16.40;98.20;;;;;;5030539;28;20125;-70
2023/09/05 02:35:48;;;;;;;7.72;3.38;;;16.30;98.20;;;;;;5020370;28;20083;-69
2023/09/05 02:38:14;;;;;;;4.63;3.30;;;16.20;99.90;;;;;;5036450;28;20041;-69
2023/09/05 02:40:46;;;;;;;6.72;3.45;;;16.20;99.90;;;;;;5037582;28;20040;-69
2023/09/05 02:43:13;;;;;;;6.28;3.05;;;16.10;99.90;;;;;;5036159;28;20030;-69
2023/09/05 02:45:39;;;;;;;5.45;3.97;;;16.10;99.90;;;;;;5037891;28;20033;-69
2023/09/05 02:48:06;;;;;;;10.23;4.47;;;16.00;99.90;;;;;;5036050;28;20124;-69
2023/09/05 02:50:33;;;;;;;13.25;4.13;;;16.00;99.90;;;;;;5037376;28;20061;-70
2023/09/05 02:52:59;;;;;;;8.07;4.15;;;15.90;99.90;;;;;;5031405;28;20546;-69
2023/09/05 02:55:25;;;;;;;6.03;3.20;;;15.80;99.90;;;;;;5016097;28;20034;-69
2023/09/05 02:57:51;;;;;;;8.07;4.57;;;15.80;99.90;;;;;;5017495;28;20390;-69
2023/09/05 03:00:19;;;;;;;8.90;4.03;;;15.70;99.90;;;;;;5017715;28;20030;-69
2023/09/05 03:02:49;;;;;;;9.02;4.20;;;15.50;99.90;;;;;;5017291;28;20034;-69
2023/09/05 03:05:16;;;;;;;6.15;3.88;;;15.50;99.90;;;;;;4999875;28;20054;-69
2023/09/05 03:07:42;;;;;;;8.32;3.65;;;15.60;99.90;;;;;;5015978;28;20095;-69
2023/09/05 03:10:12;;;;;;;6.50;3.97;;;15.70;99.90;;;;;;5015926;28;20029;-69
2023/09/05 03:12:38;;;;;;;7.78;3.72;;;15.80;99.90;;;;;;5015826;28;20053;-69
2023/09/05 03:15:04;;;;;;;8.00;3.50;;;15.80;99.90;;;;;;5015834;28;20021;-69
2023/09/05 03:17:30;;;;;;;8.38;3.95;;;15.60;99.90;;;;;;5017117;28;20033;-69
2023/09/05 03:19:56;;;;;;;8.18;3.97;;;15.50;99.90;;;;;;5015665;28;20030;-69
2023/09/05 03:22:22;;;;;;;11.13;4.15;;;15.40;99.90;;;;;;5015884;28;20036;-69
2023/09/05 03:24:48;;;;;;;7.50;3.75;;;15.20;99.90;;;;;;5027278;28;20038;-69
2023/09/05 03:27:13;;;;;;;13.75;4.00;;;15.20;99.90;;;;;;5036676;28;20044;-69
2023/09/05 03:29:39;;;;;;;7.90;4.18;;;15.20;99.90;;;;;;5036643;28;20029;-69
2023/09/05 03:32:05;;;;;;;11.25;4.40;;;15.10;99.90;;;;;;5036530;28;20420;-69
2023/09/05 03:34:32;;;;;;;10.43;4.38;;;15.00;99.90;;;;;;5018791;28;20044;-69
2023/09/05 03:36:58;;;;;;;10.60;4.55;;;15.00;99.90;;;;;;5036599;28;20049;-69
2023/09/05 03:39:24;;;;;;;8.68;3.63;;;14.90;99.90;;;;;;5035091;28;20040;-69
2023/09/05 03:41:50;;;;;;;11.07;3.83;;;14.90;99.90;;;;;;5036526;28;20087;-69
2023/09/05 03:44:16;;;;;;;8.18;4.35;;;14.80;99.90;;;;;;5036220;28;20036;-69
2023/09/05 03:46:43;;;;;;;5.70;4.45;;;14.80;99.90;;;;;;5034455;28;20025;-69
2023/09/05 03:49:09;;;;;;;6.65;4.03;;;14.80;99.90;;;;;;5034935;28;20064;-70
2023/09/05 03:51:35;;;;;;;6.20;4.45;;;14.80;99.90;;;;;;5018251;28;20475;-69
2023/09/05 03:54:01;;;;;;;7.90;4.32;;;14.90;99.90;;;;;;5021363;28;20472;-69
2023/09/05 03:56:28;;;;;;;13.88;5.47;;;15.00;99.90;;;;;;5015312;28;20379;-69
2023/09/05 03:58:54;;;;;;;14.93;5.57;;;15.00;99.90;;;;;;4998686;28;20034;-69
2023/09/05 04:01:20;;;;;;;14.15;5.78;;;14.90;99.90;;;;;;5014900;28;20038;-69
2023/09/05 04:03:46;;;;;;;12.43;4.50;;;15.00;99.90;;;;;;5014934;28;20552;-69
2023/09/05 04:06:12;;;;;;;10.13;4.43;;;14.90;99.90;;;;;;5016014;28;20046;-69
2023/09/05 04:08:38;;;;;;;12.02;4.57;;;14.80;99.90;;;;;;5016043;28;20104;-69
2023/09/05 04:11:04;;;;;;;9.20;4.53;;;14.70;99.90;;;;;;5016182;28;20034;-69
2023/09/05 04:13:31;;;;;;;12.32;5.32;;;14.50;99.90;;;;;;5014628;28;20026;-69
2023/09/05 04:16:06;;;;;;;6.30;4.40;;;14.70;99.90;;;;;;5014528;28;20096;-69
2023/09/05 04:18:33;;;;;;;13.98;4.88;;;14.50;99.90;;;;;;5014803;28;20063;-69
2023/09/05 04:20:59;;;;;;;13.75;5.05;;;14.60;99.90;;;;;;5015587;28;20567;-69
2023/09/05 04:23:25;;;;;;;11.55;5.70;;;14.50;99.90;;;;;;5015051;28;20053;-69
2023/09/05 04:25:59;;;;;;;10.77;4.63;;;14.50;99.90;;;;;;5035591;28;20112;-69
2023/09/05 04:28:28;;;;;;;11.63;4.80;;;14.30;99.90;;;;;;5034005;28;20034;-69
2023/09/05 04:30:55;;;;;;;7.63;4.65;;;14.40;99.90;;;;;;5034193;28;20025;-69
2023/09/05 04:33:31;;;;;;;8.32;5.03;;;14.40;99.90;;;;;;5035517;28;20104;-69
2023/09/05 04:35:58;;;;;;;12.95;4.88;;;14.50;99.90;;;;;;5034246;28;20025;-69
2023/09/05 04:38:24;;;;;;;16.67;6.20;;;14.50;99.90;;;;;;5017433;28;20037;-69
2023/09/05 04:40:50;;;;;;;16.98;6.50;;;14.50;99.90;;;;;;5035240;28;20056;-69
2023/09/05 04:43:16;;;;;;;22.85;7.97;;;14.60;99.90;;;;;;5017516;28;20394;-69
2023/09/05 04:45:42;;;;;;;21.05;6.22;;;14.60;99.90;;;;;;5033929;28;20128;-69
2023/09/05 04:48:07;;;;;;;8.98;5.18;;;14.80;99.90;;;;;;5035153;28;20029;-69
2023/09/05 04:50:33;;;;;;;13.88;6.03;;;15.00;99.90;;;;;;5033801;28;20034;-69
2023/09/05 04:52:59;;;;;;;15.05;5.32;;;15.00;99.90;;;;;;5030410;28;20030;-69
2023/09/05 04:55:25;;;;;;;13.68;5.70;;;15.00;99.90;;;;;;5013765;28;20056;-69
2023/09/05 04:57:51;;;;;;;15.27;6.57;;;15.10;99.90;;;;;;5013797;28;20372;-69
2023/09/05 05:00:18;;;;;;;9.77;4.55;;;15.10;99.90;;;;;;5014079;28;20383;-69
2023/09/05 05:02:44;;;;;;;9.30;4.47;;;15.20;99.90;;;;;;5013825;28;20034;-69
2023/09/05 05:05:11;;;;;;;16.90;5.35;;;15.10;99.90;;;;;;5013672;28;20058;-69
2023/09/05 05:07:41;;;;;;;10.68;5.00;;;15.30;99.90;;;;;;5013928;28;20037;-69
2023/09/05 05:10:07;;;;;;;24.13;6.57;;;15.30;99.90;;;;;;5013593;28;20057;-69
2023/09/05 05:12:33;;;;;;;16.98;6.88;;;15.60;99.90;;;;;;5014908;28;20026;-69
2023/09/05 05:14:59;;;;;;;17.15;5.93;;;15.70;99.90;;;;;;5013750;28;20028;-69
2023/09/05 05:17:27;;;;;;;13.45;6.30;;;15.80;99.90;;;;;;5016653;28;20033;-69
2023/09/05 05:19:53;;;;;;;12.30;5.85;;;15.90;99.90;;;;;;5016879;28;20038;-69
2023/09/05 05:22:19;;;;;;;14.80;5.90;;;15.90;99.90;;;;;;5034600;28;20033;-69
2023/09/05 05:24:45;;;;;;;11.48;5.95;;;16.10;99.90;;;;;;5034433;28;20503;-69
2023/09/05 05:27:10;;;;;;;12.93;6.22;;;16.10;99.90;;;;;;5034247;28;20081;-69
2023/09/05 05:29:36;;;;;;;14.85;5.97;;;16.20;99.90;;;;;;5031432;28;20034;-69
2023/09/05 05:32:02;;;;;;;13.18;5.93;;;16.40;99.90;;;;;;5031883;28;20425;-69
2023/09/05 05:34:30;;;;;;;12.20;6.30;;;16.50;99.90;;;;;;5032620;28;20029;-69
2023/09/05 05:36:56;;;;;;;15.68;6.80;;;16.60;99.90;;;;;;5034531;28;20029;-69
2023/09/05 05:39:24;;;;;;;14.23;6.38;;;16.70;99.90;;;;;;5032368;28;20022;-69
2023/09/05 05:41:50;;;;;;;13.52;5.68;;;16.70;99.90;;;;;;5032822;28;20029;-69
2023/09/05 05:44:16;;;;;;;18.38;7.10;;;16.70;99.90;;;;;;5033043;28;20037;-69
2023/09/05 05:46:43;;;;;;;14.50;7.15;;;16.80;99.90;;;;;;5032401;28;20029;-69
2023/09/05 05:49:09;;;;;;;17.80;8.38;;;17.00;99.90;;;;;;5032675;28;20034;-69
2023/09/05 05:51:37;;;;;;;14.23;6.15;;;17.20;99.90;;;;;;5031874;28;20532;-69
2023/09/05 05:54:03;;;;;;;17.80;5.30;;;17.20;99.90;;;;;;5020635;28;20121;-69
2023/09/05 05:56:29;;;;;;;14.57;6.68;;;17.30;99.90;;;;;;5029586;28;20058;-69
2023/09/05 05:58:55;;;;;;;12.80;6.28;;;17.50;99.90;;;;;;5013228;28;20494;-69
2023/09/05 06:01:21;;;;;;;17.13;6.20;;;17.60;99.90;;;;;;5012962;28;20034;-69
2023/09/05 06:03:47;;;;;;;12.88;6.10;;;17.80;99.90;;;;;;5014424;28;20029;-69
2023/09/05 06:06:13;;;;;;;11.85;5.88;;;17.80;99.90;;;;;;5013990;28;20149;-69
2023/09/05 06:08:40;;;;;;;9.50;4.95;;;18.00;99.90;;;;;;5020684;28;20036;-69
2023/09/05 06:11:07;;;;;;;12.80;6.07;;;18.20;99.60;;;;;;5036149;28;20022;-69
2023/09/05 06:13:33;;;;;;;16.05;5.80;;;18.30;99.10;;;;;;5034624;28;20033;-69
2023/09/05 06:15:59;;;;;;;12.25;5.72;;;18.40;98.20;;;;;;5034352;28;20049;-69
2023/09/05 06:18:25;;;;;;;18.52;5.75;;;18.10;98.40;;;;;;5029204;28;20475;-69
2023/09/05 06:20:51;;;;;;;11.52;5.82;;;18.10;98.70;;;;;;5017694;28;20030;-69
2023/09/05 06:23:17;;;;;;;25.95;8.05;;;18.10;98.50;;;;;;5020483;28;20084;-69
2023/09/05 06:25:43;;;;;;;14.65;6.35;;;18.10;98.40;;;;;;5027743;28;20300;-69
2023/09/05 06:28:09;;;;;;;12.73;6.28;;;18.10;98.60;;;;;;5034310;28;20044;-69
2023/09/05 06:30:35;;;;;;;17.70;7.40;;;18.10;98.10;;;;;;5037362;28;20025;-69
2023/09/05 06:33:01;;;;;;;12.45;6.25;;;18.00;98.40;;;;;;5037412;28;20029;-69
2023/09/05 06:35:27;;;;;;;13.68;6.72;;;17.90;98.50;;;;;;5027944;28;20063;-69
2023/09/05 06:37:56;;;;;;;17.05;6.90;;;18.00;98.70;;;;;;5049171;28;20037;-69
2023/09/05 06:40:23;;;;;;;14.50;6.65;;;18.10;99.00;;;;;;5037519;28;20052;-69
2023/09/05 06:42:52;;;;;;;13.20;5.85;;;18.20;99.20;;;;;;5031164;28;20120;-69
2023/09/05 06:45:18;;;;;;;10.32;5.72;;;18.30;98.60;;;;;;5036572;28;20025;-69
2023/09/05 06:47:44;;;;;;;16.20;7.13;;;18.30;98.00;;;;;;5025600;28;20038;-69
2023/09/05 06:50:11;;;;;;;18.00;8.57;;;18.30;97.50;;;;;;5037155;28;20442;-69
2023/09/05 06:52:37;;;;;;;13.80;7.05;;;18.30;97.70;;;;;;5036803;28;20033;-69
2023/09/05 06:55:03;;;;;;;13.73;6.38;;;18.40;97.80;;;;;;5037045;28;20079;-69
2023/09/05 06:57:29;;;;;;;7.65;4.80;;;18.50;97.80;;;;;;5027292;28;20060;-69
2023/09/05 06:59:55;;;;;;;10.00;5.47;;;18.60;96.80;;;;;;5022793;28;20022;-69
2023/09/05 07:02:21;;;;;;;34.65;7.20;;;18.70;96.90;;;;;;5030660;28;20033;-69
2023/09/05 07:04:47;;;;;;;12.13;5.68;;;18.60;96.90;;;;;;5025095;28;20096;-69
2023/09/05 07:07:13;;;;;;;15.00;5.40;;;18.80;97.30;;;;;;5032365;28;20021;-69
2023/09/05 07:09:39;;;;;;;11.18;4.45;;;19.10;97.50;;;;;;5036207;28;20045;-69
2023/09/05 07:12:06;;;;;;;10.25;4.85;;;19.40;96.10;;;;;;5037474;28;20070;-69
2023/09/05 07:14:32;;;;;;;8.25;4.50;;;19.40;95.40;;;;;;5036107;28;20372;-69
2023/09/05 07:16:59;;;;;;;11.60;5.32;;;19.40;94.50;;;;;;5037360;28;20033;-69
2023/09/05 07:19:26;;;;;;;14.48;6.00;;;19.40;94.50;;;;;;5035065;28;20391;-70
2023/09/05 07:21:52;;;;;;;10.45;4.93;;;19.40;94.30;;;;;;5037002;28;20037;-69
2023/09/05 07:24:18;;;;;;;17.77;5.70;;;19.30;94.20;;;;;;5036038;28;20037;-69
2023/09/05 07:26:45;;;;;;;14.10;5.95;;;19.30;94.10;;;;;;5035717;28;20033;-69
2023/09/05 07:29:12;;;;;;;21.00;6.60;;;19.50;94.20;;;;;;5035646;28;20044;-69
2023/09/05 07:31:39;;;;;;;10.32;4.95;;;19.50;93.80;;;;;;5030426;28;20121;-69
2023/09/05 07:34:05;;;;;;;15.10;5.60;;;19.60;93.60;;;;;;5036804;28;20053;-69
2023/09/05 07:36:33;;;;;;;16.33;5.50;;;19.70;93.90;;;;;;5037173;28;20084;-69
2023/09/05 07:39:01;;;;;;;8.00;4.32;;;19.70;93.30;;;;;;5035859;28;20112;-69
2023/09/05 07:41:29;;;;;;;12.93;5.40;;;20.00;92.60;;;;;;5036383;28;20431;-69
2023/09/05 07:43:55;;;;;;;11.45;5.22;;;20.10;92.20;;;;;;5023185;28;20030;-69
2023/09/05 07:46:21;;;;;;;23.75;7.03;;;20.00;92.20;;;;;;5027630;28;20026;-69
2023/09/05 07:48:48;;;;;;;9.27;4.78;;;20.10;92.00;;;;;;5036194;28;20037;-69
2023/09/05 07:51:14;;;;;;;16.67;5.22;;;20.50;91.70;;;;;;5034738;28;20326;-69
2023/09/05 07:53:51;;;;;;;9.07;5.22;;;20.70;91.10;;;;;;5027752;28;20037;-69
2023/09/05 07:56:17;;;;;;;11.35;5.80;;;20.60;90.10;;;;;;5034694;28;20029;-69
2023/09/05 07:58:43;;;;;;;22.83;6.70;;;20.80;90.80;;;;;;5018302;28;20034;-69
2023/09/05 08:01:09;;;;;;;19.92;6.25;;;21.10;88.40;;;;;;5035743;28;20037;-69
2023/09/05 08:03:36;;;;;;;21.90;7.53;;;21.30;90.60;;;;;;5034729;28;20025;-69
2023/09/05 08:06:04;;;;;;;11.13;5.78;;;21.50;84.50;;;;;;5029332;28;20060;-69
2023/09/05 08:08:31;;;;;;;8.32;5.43;;;21.80;84.60;;;;;;5035265;28;20045;-69
2023/09/05 08:10:57;;;;;;;8.77;5.00;;;22.00;80.50;;;;;;5050415;28;20036;-69
2023/09/05 08:13:23;;;;;;;9.75;5.03;;;21.80;79.50;;;;;;5035805;28;20398;-69
2023/09/05 08:15:54;;;;;;;9.23;4.97;;;21.90;78.10;;;;;;5017521;28;20478;-69
2023/09/05 08:18:19;;;;;;;;;;;22.30;83.40;;;;;;5033872;28;20247;-69
2023/09/05 08:20:46;;;;;;;9.18;5.18;;;22.60;78.20;;;;;;5031962;28;19974;-69
2023/09/05 08:23:12;;;;;;;7.53;4.88;;;22.90;76.70;;;;;;5033261;28;20036;-69
2023/09/05 08:25:39;;;;;;;12.10;5.45;;;23.30;75.10;;;;;;5024673;28;20041;-69
2023/09/05 08:28:05;;;;;;;10.20;5.10;;;23.60;73.00;;;;;;5025216;28;20037;-69
2023/09/05 08:30:32;;;;;;;7.82;4.43;;;24.20;70.50;;;;;;5033191;28;20037;-69
2023/09/05 08:33:03;;;;;;;10.25;5.15;;;25.10;67.80;;;;;;5031911;28;20028;-69
2023/09/05 08:35:29;;;;;;;7.03;4.90;;;25.80;63.70;;;;;;5034649;28;20049;-69
2023/09/05 08:37:57;;;;;;;17.40;6.35;;;25.40;60.30;;;;;;5030754;28;20037;-70
2023/09/05 08:40:23;;;;;;;10.00;5.20;;;24.80;60.60;;;;;;5033993;28;20029;-70
2023/09/05 08:42:53;;;;;;;8.27;5.18;;;24.60;62.60;;;;;;5034678;28;20032;-70
2023/09/05 08:45:23;;;;;;;6.90;4.68;;;24.50;61.70;;;;;;5022946;28;20131;-70
2023/09/05 08:47:51;;;;;;;7.55;5.25;;;24.60;61.90;;;;;;5021799;28;20036;-70
2023/09/05 08:50:17;;;;;;;12.30;5.80;;;24.50;61.90;;;;;;5035003;28;20478;-70
2023/09/05 08:52:43;;;;;;;10.00;5.22;;;24.50;61.30;;;;;;5034784;28;20105;-70
2023/09/05 08:55:13;;;;;;;10.00;4.85;;;24.50;61.00;;;;;;5034830;28;20067;-70
2023/09/05 08:57:41;;;;;;;8.27;4.75;;;24.40;62.50;;;;;;5033461;28;20057;-69
2023/09/05 09:00:07;;;;;;;9.32;5.07;;;24.30;61.70;;;;;;5034517;28;20029;-69
2023/09/05 09:02:37;;;;;;;8.95;5.25;;;24.50;61.70;;;;;;5033586;28;20029;-69
2023/09/05 09:05:03;;;;;;;12.63;4.80;;;24.80;64.00;;;;;;5034612;28;20048;-69
2023/09/05 09:07:30;;;;;;;10.30;5.53;;;25.50;62.10;;;;;;5016387;28;20117;-69
2023/09/05 09:09:58;;;;;;;7.07;4.53;;;25.80;59.20;;;;;;5011988;28;20077;-70
2023/09/05 09:12:31;;;;;;;7.95;4.75;;;26.10;57.20;;;;;;5014542;28;20053;-67
2023/09/05 09:15:11;;;;;;;5.75;4.70;;;26.70;59.10;;;;;;5014737;28;20030;-68
2023/09/05 09:17:47;;;;;;;5.97;4.75;;;26.90;54.90;;;;;;5030269;28;20434;-68
2023/09/05 09:20:14;;;;;;;4.72;4.22;;;27.40;56.80;;;;;;5029796;28;20064;-68
2023/09/05 09:22:42;;;;;;;4.72;3.92;;;27.30;52.10;;;;;;5014452;28;20025;-68
2023/09/05 09:25:20;;;;;;;12.73;4.75;;;26.60;54.50;;;;;;5013759;28;20495;-68
2023/09/05 09:27:53;;;;;;;7.78;4.18;;;27.10;55.50;;;;;;5014247;28;20022;-69
2023/09/05 09:30:27;;;;;;;6.32;4.78;;;27.10;52.40;;;;;;5019202;28;20034;-68
2023/09/05 09:32:54;;;;;;;6.63;3.72;;;26.50;52.50;;;;;;5013370;28;20055;-68
2023/09/05 09:35:21;;;;;;;6.50;3.78;;;27.20;53.80;;;;;;5016047;28;20418;-68
2023/09/05 09:37:48;;;;;;;11.52;3.50;;;27.90;50.80;;;;;;5033669;28;20083;-68
2023/09/05 09:40:18;;;;;;;6.82;3.42;;;28.30;50.70;;;;;;5034224;28;20022;-68
2023/09/05 09:42:48;;;;;;;14.00;4.90;;;28.40;49.90;;;;;;5015852;28;20029;-68
2023/09/05 09:45:18;;;;;;;7.30;3.95;;;28.50;48.20;;;;;;5014246;28;20037;-68
2023/09/05 09:47:49;;;;;;;5.13;3.78;;;28.00;47.60;;;;;;5025694;28;20030;-68
2023/09/05 09:50:17;;;;;;;8.70;4.28;;;27.80;48.70;;;;;;5029760;28;20030;-68
2023/09/05 09:52:45;;;;;;;7.80;4.25;;;27.40;48.60;;;;;;5031827;28;20063;-68
2023/09/05 09:55:13;;;;;;;8.65;4.25;;;27.10;49.60;;;;;;5021415;28;20109;-68
2023/09/05 09:57:56;;;;;;;8.65;3.90;;;26.60;50.80;;;;;;5033490;28;20033;-69
2023/09/05 10:00:23;;;;;;;22.55;7.72;;;25.70;52.20;;;;;;5029762;28;20025;-68
2023/09/05 10:02:50;;;;;;;7.93;3.85;;;25.90;52.50;;;;;;5030729;28;20025;-68
2023/09/05 10:05:17;;;;;;;9.43;4.47;;;25.80;52.60;;;;;;5033807;28;20121;-68
2023/09/05 10:07:44;;;;;;;8.18;4.60;;;25.70;56.10;;;;;;5032048;28;20051;-67
2023/09/05 10:10:15;;;;;;;9.00;3.92;;;26.00;53.90;;;;;;5034085;28;20528;-68
2023/09/05 10:12:56;;;;;;;7.50;4.13;;;26.50;53.40;;;;;;5016412;28;20041;-68
2023/09/05 10:15:24;;;;;;;9.32;4.10;;;27.00;51.60;;;;;;5034382;28;20033;-68
2023/09/05 10:17:54;;;;;;;8.85;4.18;;;26.90;54.00;;;;;;5034000;28;20107;-68
2023/09/05 10:20:21;;;;;;;11.80;4.35;;;27.10;51.60;;;;;;5032412;28;20029;-67
2023/09/05 10:22:47;;;;;;;9.32;4.93;;;26.60;51.30;;;;;;5034252;28;20034;-68
2023/09/05 10:25:14;;;;;;;5.30;4.28;;;26.40;52.00;;;;;;5048217;28;20473;-68
2023/09/05 10:27:40;;;;;;;11.75;5.00;;;26.10;52.20;;;;;;5031949;28;20116;-68
2023/09/05 10:30:12;;;;;;;15.73;6.07;;;25.90;53.10;;;;;;5033547;28;20422;-69
2023/09/05 10:32:44;;;;;;;12.23;5.13;;;24.50;56.60;;;;;;5032011;28;20037;-68
2023/09/05 10:35:17;;;;;;;6.85;4.50;;;25.10;56.20;;;;;;5033659;28;20033;-68
2023/09/05 10:37:50;;;;;;;13.68;7.63;;;25.80;55.80;;;;;;5032102;28;20026;-67
2023/09/05 10:40:17;;;;;;;16.15;9.32;;;26.10;54.80;;;;;;5033074;28;20034;-68
2023/09/05 10:42:51;;;;;;;20.10;9.60;;;25.40;55.40;;;;;;5032417;28;20030;-67
2023/09/05 10:45:21;;;;;;;21.02;10.05;;;24.60;56.20;;;;;;5031242;28;20048;-68
2023/09/05 10:47:53;;;;;;;16.85;9.77;;;24.10;58.40;;;;;;5031494;28;20430;-68
2023/09/05 10:50:20;;;;;;;14.90;9.27;;;23.80;59.40;;;;;;5028434;28;20045;-69
2023/09/05 10:52:50;;;;;;;15.07;9.65;;;23.30;60.90;;;;;;5026593;28;20451;-67
2023/09/05 10:55:39;;;;;;;24.63;11.13;;;23.60;60.70;;;;;;5035595;28;20026;-69
2023/09/05 10:58:47;;;;;;;22.75;10.45;;;23.30;63.00;;;;;;5019241;28;20120;-68
2023/09/05 11:01:31;;;;;;;16.63;10.27;;;23.40;61.60;;;;;;5036973;28;20044;-68
2023/09/05 11:04:07;;;;;;;25.42;10.43;;;23.50;62.50;;;;;;5036252;28;20032;-68
2023/09/05 11:06:34;;;;;;;61.85;30.15;;;23.40;63.60;;;;;;5033233;28;20498;-67
2023/09/05 11:09:04;;;;;;;22.08;10.85;;;23.60;61.90;;;;;;5026523;28;20038;-67
2023/09/05 11:11:31;;;;;;;13.60;8.65;;;23.50;62.00;;;;;;5035179;28;20493;-68
2023/09/05 11:13:57;;;;;;;19.08;8.98;;;23.60;62.30;;;;;;5036231;28;20037;-68
2023/09/05 11:16:24;;;;;;;18.90;8.68;;;23.80;61.60;;;;;;5037241;28;20356;-68
2023/09/05 11:18:55;;;;;;;20.85;10.23;;;24.10;61.30;;;;;;5037430;28;20030;-68
2023/09/05 11:21:22;;;;;;;18.05;11.30;;;24.40;61.70;;;;;;5034467;28;20091;-68
2023/09/05 11:23:55;;;;;;;21.75;9.32;;;24.90;59.70;;;;;;5037110;28;20025;-68
2023/09/05 11:26:22;;;;;;;25.30;11.50;;;24.80;59.40;;;;;;5036039;28;20048;-68
2023/09/05 11:28:51;;;;;;;21.77;9.02;;;25.30;58.70;;;;;;5018442;28;20471;-68
2023/09/05 11:31:18;;;;;;;13.07;7.65;;;25.60;57.20;;;;;;5035019;28;20059;-68
2023/09/05 11:33:45;;;;;;;17.38;8.35;;;25.80;55.90;;;;;;5068356;28;20037;-68
2023/09/05 11:36:12;;;;;;;11.93;7.57;;;25.90;56.70;;;;;;5034762;28;20029;-68
2023/09/05 11:38:50;;;;;;;20.55;8.50;;;26.00;56.00;;;;;;5034645;28;20040;-69
2023/09/05 11:41:18;;;;;;;8.63;4.70;;;25.70;56.90;;;;;;5027330;28;20037;-68
2023/09/05 11:43:50;;;;;;;5.80;3.63;;;25.90;54.90;;;;;;5015951;28;20116;-69
2023/09/05 11:46:17;;;;;;;12.52;4.72;;;25.70;55.30;;;;;;5016376;28;20033;-69
2023/09/05 11:48:45;;;;;;;18.20;5.15;;;25.80;55.20;;;;;;5015946;28;20077;-69
2023/09/05 11:51:14;;;;;;;18.17;4.72;;;25.30;54.70;;;;;;5027622;28;20029;-68
2023/09/05 11:53:44;;;;;;;10.35;3.88;;;25.50;55.60;;;;;;5033531;28;20501;-68
2023/09/05 11:56:11;;;;;;;13.95;5.70;;;25.40;55.70;;;;;;5016231;28;20499;-68
2023/09/05 11:58:37;;;;;;;9.13;3.92;;;25.20;55.90;;;;;;5026630;28;20475;-68
2023/09/05 12:01:04;;;;;;;8.43;4.05;;;24.90;57.60;;;;;;5035870;28;20120;-69
2023/09/05 12:03:34;;;;;;;12.45;4.70;;;24.90;56.80;;;;;;5035909;28;20025;-69
2023/09/05 12:06:01;;;;;;;14.10;4.32;;;24.90;57.20;;;;;;5032588;28;20079;-68
2023/09/05 12:08:27;;;;;;;14.63;4.40;;;25.10;56.50;;;;;;5034428;28;20037;-69
2023/09/05 12:10:55;;;;;;;10.32;5.00;;;24.60;57.30;;;;;;5034281;28;20029;-68
2023/09/05 12:13:43;;;;;;;7.35;3.90;;;25.10;58.00;;;;;;5035399;28;20036;-69
2023/09/05 12:16:10;;;;;;;8.60;4.47;;;25.30;55.90;;;;;;5035675;28;20038;-68
2023/09/05 12:18:39;;;;;;;12.98;5.13;;;25.60;56.00;;;;;;5035338;28;20029;-69
2023/09/05 12:21:05;;;;;;;6.82;3.90;;;25.60;55.40;;;;;;5035577;28;20487;-68
2023/09/05 12:23:32;;;;;;;7.70;3.63;;;25.40;54.00;;;;;;5032945;28;20029;-68
2023/09/05 12:25:58;;;;;;;5.47;3.65;;;25.40;55.20;;;;;;5014175;28;20088;-68
2023/09/05 12:28:26;;;;;;;9.95;4.25;;;26.00;54.30;;;;;;5014124;28;20041;-68
2023/09/05 12:31:08;;;;;;;15.00;5.82;;;26.30;53.60;;;;;;5024890;28;20030;-68
2023/09/05 12:33:34;;;;;;;6.90;4.32;;;26.90;53.10;;;;;;5030544;28;20105;-68
2023/09/05 12:36:01;;;;;;;17.20;6.20;;;27.10;52.60;;;;;;5026061;28;20068;-69
2023/09/05 12:38:29;;;;;;;5.63;3.03;;;27.50;52.40;;;;;;5015217;28;20038;-69
2023/09/05 12:40:57;;;;;;;7.30;3.72;;;27.30;51.80;;;;;;5015306;28;20069;-69
2023/09/05 12:43:24;;;;;;;8.10;4.03;;;27.40;50.90;;;;;;5014036;28;20033;-68
2023/09/05 12:45:50;;;;;;;4.22;3.50;;;27.40;50.20;;;;;;4997906;28;20088;-68